• Join FlightAware (Why Join?)
  • Login
  • US Flag 
09:12PM EST


 

Airport Tracker/Info


-or-


 

Live Flight TrackerFlight Track Log ✈ N260AJ ✈ 06-May-2013 ✈ KMSP - KSDL

Flight Track Log - Related Links

Times and Time Zones

All times are in EDT time to prevent confusion due to time zone crossing. See the N260AJ flight status page for this flight to view local times or setup timezone preferences in your user account.

Time Position Orientation Groundspeed Altitude Reporting Facility
EDT Latitude Longitude Course Direction KTS MPH feet Rate Location/Type
10:31PM 44.8625 -93.1747 128° Southeast 204 235 2,900  Level Minneapolis Center
10:32PM 44.8256 -93.1083 128° Southeast 226 260 7,300 4,620 Climbing Minneapolis Center
10:33PM 44.7728 -93.1883 227° Southwest 253 291 12,400 4,140 Climbing Minneapolis Center
10:34PM 44.7414 -93.2942 247° West 296 341 15,800 3,060 Climbing Minneapolis Center
10:35PM 44.7111 -93.4036 249° West 326 375 18,700 3,120 Climbing Minneapolis Center
10:36PM 44.6753 -93.5272 248° West 340 391 22,200 3,300 Climbing Minneapolis Center
10:37PM 44.6372 -93.6586 248° West 358 412 25,500 3,600 Climbing Minneapolis Center
10:38PM 44.5789 -93.8056 241° Southwest 361 415 29,700 3,540 Climbing Minneapolis Center
10:39PM 44.5314 -93.9261 241° Southwest 357 411 32,800 2,400 Climbing Minneapolis Center
10:40PM 44.4844 -94.0464 241° Southwest 354 407 34,600 1,620 Climbing Minneapolis Center
10:41PM 44.4311 -94.1769 240° Southwest 377 434 36,200 1,440 Climbing Minneapolis Center
10:42PM 44.3756 -94.3147 241° Southwest 401 461 37,600 1,200 Climbing Minneapolis Center
10:43PM 44.3181 -94.4567 241° Southwest 419 482 38,700 1,140 Climbing Minneapolis Center
10:44PM 44.2586 -94.6003 240° Southwest 426 490 40,000 600 Climbing Minneapolis Center
10:45PM 44.1933 -94.7628 241° Southwest 432 497 40,000  Level Minneapolis Center
10:47PM 44.1194 -94.9938 239° Southwest  Level FlightAware Approximate
10:47PM 44.0728 -95.0572 239° Southwest 436 502 40,000  Level Minneapolis Center
10:48PM 44.0117 -95.2047 240° Southwest 439 505 40,000  Level Minneapolis Center
10:49PM 43.9494 -95.3528 240° Southwest 442 509 40,000  Level Minneapolis Center
10:50PM 43.8992 -95.4706 239° Southwest 441 507 40,000  Level Minneapolis Center
10:51PM 43.8244 -95.6467 240° Southwest 440 506 40,000  Level Minneapolis Center
10:52PM 43.7631 -95.7931 240° Southwest 437 503 40,000  Level Minneapolis Center
10:53PM 43.7008 -95.9372 239° Southwest 436 502 40,000  Level Minneapolis Center
10:54PM 43.6389 -96.0831 240° Southwest 436 502 40,000  Level Minneapolis Center
10:55PM 43.5758 -96.2269 239° Southwest 437 503 40,000  Level Minneapolis Center
10:56PM 43.5014 -96.4014 240° Southwest 438 504 40,000  Level Minneapolis Center
10:57PM 43.4381 -96.5447 239° Southwest 439 505 40,000  Level Minneapolis Center
10:58PM 43.3750 -96.6889 239° Southwest 439 505 40,000  Level Minneapolis Center
10:59PM 43.3111 -96.8347 239° Southwest 441 507 40,000  Level Minneapolis Center
11:00PM 43.2469 -96.9792 239° Southwest 442 509 40,000  Level Minneapolis Center
11:01PM 43.1828 -97.1250 239° Southwest 446 513 40,000  Level Minneapolis Center
11:02PM 43.1175 -97.2681 238° Southwest 445 512 40,000  Level Minneapolis Center
11:03PM 43.0536 -97.4131 239° Southwest 445 512 40,000  Level Minneapolis Center
11:04PM 42.9903 -97.5581 239° Southwest 444 511 40,000  Level Minneapolis Center
11:05PM 42.9125 -97.7283 238° Southwest 442 509 40,000  Level Minneapolis Center
11:07PM 42.8486 -97.8706 239° Southwest 441 507 40,000  Level Minneapolis Center
11:08PM 42.7697 -98.0383 237° Southwest 439 505 40,000  Level Minneapolis Center
11:09PM 42.7064 -98.1792 239° Southwest 438 504 40,000  Level Minneapolis Center
11:10PM 42.6372 -98.3281 238° Southwest 437 503 40,000  Level Minneapolis Center
11:11PM 42.5731 -98.4681 238° Southwest 438 504 40,000  Level Minneapolis Center
11:12PM 42.5078 -98.6078 238° Southwest 439 505 40,000  Level Minneapolis Center
11:13PM 42.4419 -98.7450 237° Southwest 436 502 40,000  Level Minneapolis Center
11:14PM 42.3731 -98.8797 235° Southwest 437 503 40,000  Level Minneapolis Center
11:15PM 42.3042 -99.0169 236° Southwest 440 506 40,000  Level Minneapolis Center
11:16PM 42.2206 -99.1803 235° Southwest 442 509 40,000  Level Minneapolis Center
11:17PM 42.1233 -99.3700 235° Southwest 439 505 40,000  Level Denver Center
11:18PM 42.0539 -99.5069 236° Southwest 443 510 40,000  Level Denver Center
11:19PM 41.9836 -99.6425 235° Southwest 444 511 40,000  Level Denver Center
11:20PM 41.9078 -99.7878 235° Southwest 441 507 40,000  Level Denver Center
11:21PM 41.8297 -99.9372 235° Southwest 440 506 40,000  Level Denver Center
11:22PM 41.7633 -100.0669 236° Southwest 441 507 40,000  Level Denver Center
11:24PM 41.6847 -100.2158 235° Southwest 440 506 40,000  Level Denver Center
11:25PM 41.6167 -100.3419 234° Southwest 439 505 40,000  Level Denver Center
11:26PM 41.5500 -100.4694 235° Southwest 438 504 40,000  Level Denver Center
11:27PM 41.4714 -100.6172 235° Southwest 439 505 40,000  Level Denver Center
11:28PM 41.4050 -100.7408 234° Southwest 432 497 40,000  Level Denver Center
11:29PM 41.3258 -100.8869 234° Southwest 437 503 40,000  Level Denver Center
11:30PM 41.2583 -101.0131 235° Southwest 439 505 40,000  Level Denver Center
11:31PM 41.1911 -101.1372 234° Southwest 437 503 40,000  Level Denver Center
11:32PM 41.1122 -101.2828 234° Southwest 439 505 40,000  Level Denver Center
11:33PM 41.0436 -101.4075 234° Southwest 439 505 40,000  Level Denver Center
11:34PM 40.9642 -101.5531 234° Southwest 439 505 40,000  Level Denver Center
11:35PM 40.8953 -101.6786 234° Southwest 441 507 40,000  Level Denver Center
11:36PM 40.8150 -101.8253 234° Southwest 442 509 40,000  Level Denver Center
11:37PM 40.7458 -101.9492 234° Southwest 439 505 40,000  Level Denver Center
11:38PM 40.6778 -102.0711 234° Southwest 435 501 40,000  Level Denver Center
11:39PM 40.5961 -102.2122 233° Southwest 435 501 40,000  Level Denver Center
11:40PM 40.5286 -102.3331 234° Southwest 431 496 40,000  Level Denver Center
11:41PM 40.4492 -102.4739 233° Southwest 430 495 40,000  Level Denver Center
11:42PM 40.3803 -102.5933 233° Southwest 430 495 40,000  Level Denver Center
11:43PM 40.3028 -102.7286 233° Southwest 429 494 40,000  Level Denver Center
11:44PM 40.2550 -102.8131 233° Southwest 429 494 40,000  Level Denver Center
11:45PM 40.1600 -102.9831 234° Southwest 431 496 40,000  Level Denver Center
11:46PM 40.0861 -103.1083 232° Southwest 432 497 40,000  Level Denver Center
11:47PM 40.0128 -103.2353 233° Southwest 434 499 40,000  Level Denver Center
11:48PM 39.9389 -103.3594 232° Southwest 430 495 40,000  Level Denver Center
11:49PM 39.8644 -103.4867 233° Southwest 438 504 40,000  Level Denver Center
11:50PM 39.7911 -103.6119 233° Southwest 433 498 40,000  Level Denver Center
11:51PM 39.7167 -103.7381 233° Southwest 435 501 40,000  Level Denver Center
11:52PM 39.6428 -103.8653 233° Southwest 435 501 40,000  Level Denver Center
11:53PM 39.5689 -103.9894 232° Southwest 431 496 40,000  Level Denver Center
11:54PM 39.4944 -104.1122 232° Southwest 427 491 40,000  Level Denver Center
11:55PM 39.4200 -104.2364 232° Southwest 431 496 40,000  Level Denver Center
11:56PM 39.3458 -104.3597 232° Southwest 429 494 40,000  Level Denver Center
11:57PM 39.2719 -104.4831 232° Southwest 427 491 40,000  Level Denver Center
11:58PM 39.1972 -104.6064 232° Southwest 429 494 40,000  Level Denver Center
11:59PM 39.1222 -104.7292 232° Southwest 428 493 40,000  Level Denver Center
12:00AM 39.0483 -104.8514 232° Southwest 426 490 40,000  Level Denver Center
12:01AM 38.9731 -104.9722 231° Southwest 426 490 40,000  Level Denver Center
12:02AM 38.8989 -105.0931 232° Southwest 427 491 40,000  Level Denver Center
12:03AM 38.8239 -105.2153 232° Southwest 431 496 40,000  Level Denver Center
12:04AM 38.7483 -105.3367 231° Southwest 432 497 40,000  Level Denver Center
12:05AM 38.6600 -105.4800 232° Southwest 436 502 40,000  Level Denver Center
12:06AM 38.5831 -105.6011 231° Southwest 434 499 40,000  Level Denver Center
12:08AM 38.5078 -105.7233 232° Southwest 434 499 40,000  Level Denver Center
12:09AM 38.4294 -105.8786 237° Southwest 430 495 40,000  Level Denver Center
12:10AM 38.3658 -106.0017 237° Southwest 435 501 40,000  Level Denver Center
12:11AM 38.3033 -106.1225 237° Southwest 431 496 40,000  Level Denver Center
12:12AM 38.2300 -106.2597 236° Southwest 433 498 40,000  Level Denver Center
12:13AM 38.1642 -106.3861 237° Southwest 428 493 40,000  Level Denver Center
12:14AM 38.0936 -106.5211 236° Southwest 419 482 40,000  Level Denver Center
12:15AM 38.0314 -106.6392 236° Southwest 420 483 40,000  Level Denver Center
12:16AM 37.9683 -106.7569 236° Southwest 422 486 40,000  Level Denver Center
12:17AM 37.8944 -106.8953 236° Southwest 425 489 40,000  Level Denver Center
12:18AM 37.8314 -107.0139 236° Southwest 423 487 40,000  Level Denver Center
12:19AM 37.7622 -107.1439 236° Southwest 423 487 40,000  Level Denver Center
12:20AM 37.6983 -107.2594 235° Southwest 419 482 40,000  Level Denver Center
12:21AM 37.6258 -107.3939 236° Southwest 415 478 40,000  Level Denver Center
12:22AM 37.5642 -107.5078 236° Southwest 412 474 40,000  Level Denver Center
12:23AM 37.5008 -107.6231 235° Southwest 418 481 40,000  Level Denver Center
12:24AM 37.4269 -107.7572 235° Southwest 420 483 40,000  Level Denver Center
12:25AM 37.3628 -107.8733 235° Southwest 421 484 40,000  Level Denver Center
12:26AM 37.2997 -107.9897 236° Southwest 421 484 40,000  Level Denver Center
12:27AM 37.2258 -108.1228 235° Southwest 419 482 40,000  Level Denver Center
12:28AM 37.1644 -108.2331 235° Southwest 406 467 40,000  Level Denver Center
12:29AM 37.0925 -108.3617 235° Southwest 404 465 40,000  Level Denver Center
12:30AM 37.0308 -108.4700 235° Southwest 402 463 40,000  Level Denver Center
12:31AM 36.9689 -108.5794 235° Southwest 402 463 40,000  Level Denver Center
12:32AM 36.8964 -108.7089 235° Southwest 406 467 40,000  Level Denver Center
12:33AM 36.8339 -108.8197 235° Southwest 408 470 40,000  Level Denver Center
12:34AM 36.7714 -108.9306 235° Southwest 409 471 40,000  Level Denver Center
12:35AM 36.6975 -109.0600 235° Southwest 411 473 40,000  Level Denver Center
12:36AM 36.6350 -109.1692 235° Southwest 409 471 40,000  Level Denver Center
12:37AM 36.5608 -109.2989 235° Southwest 413 475 40,000  Level Denver Center
12:38AM 36.4969 -109.4111 235° Southwest 417 480 40,000  Level Denver Center
12:39AM 36.4319 -109.5217 234° Southwest 417 480 40,000 -360 Level Denver Center
12:40AM 36.3594 -109.6472 234° Southwest 404 465 39,300 -1,140 Descending Denver Center
12:41AM 36.3011 -109.7492 235° Southwest 388 447 37,800 -1,500 Descending Denver Center
12:42AM 36.2433 -109.8461 234° Southwest 375 432 36,300 -1,620 Descending Denver Center
12:43AM 36.1767 -109.9617 234° Southwest 371 427 34,600 -1,200 Descending Denver Center
12:44AM 36.1189 -110.0594 234° Southwest 369 425 34,000 -300 Descending Denver Center
12:45AM 36.0589 -110.1622 234° Southwest 369 425 34,000  Level Denver Center
12:46AM 35.9972 -110.2681 234° Southwest 375 432 34,000  Level Denver Center
12:47AM 35.9436 -110.3561 233° Southwest 388 447 34,000  Level Denver Center
12:48AM 35.8647 -110.4886 234° Southwest 397 457 34,000  Level Denver Center
12:49AM 35.8411 -110.5203 227° Southwest 396 456 34,000  Level Albuquerque Center
12:50AM 35.7431 -110.6175 219° Southwest 408 470 34,000  Level Albuquerque Center
12:51AM 35.6528 -110.6917 214° Southwest 407 468 34,000  Level Albuquerque Center
12:52AM 35.5633 -110.7669 214° Southwest 407 468 34,000  Level Albuquerque Center
12:53AM 35.4603 -110.8558 215° Southwest 404 465 34,000  Level Albuquerque Center
12:54AM 35.3736 -110.9311 215° Southwest 401 461 34,000  Level Albuquerque Center
12:55AM 35.2847 -111.0042 214° Southwest 400 460 34,000  Level Albuquerque Center
12:56AM 35.1908 -111.0875 216° Southwest 396 456 34,000  Level Albuquerque Center
12:57AM 35.1003 -111.1686 216° Southwest 400 460 34,000  Level Albuquerque Center
12:58AM 35.0086 -111.2472 215° Southwest 402 463 34,000 -1,200 Level Albuquerque Center
12:59AM 34.9164 -111.3239 214° Southwest 403 464 31,600 -2,580 Descending Albuquerque Center
01:00AM 34.8239 -111.4014 215° Southwest 403 464 28,800 -2,820 Descending Albuquerque Center
01:01AM 34.7308 -111.4797 215° Southwest 405 466 26,000 -2,700 Descending Albuquerque Center
01:02AM 34.6403 -111.5556 215° Southwest 402 463 23,400 -2,580 Descending Albuquerque Center
01:03AM 34.5528 -111.6292 215° Southwest 393 452 20,800 -2,580 Descending Albuquerque Center
01:04AM 34.4689 -111.6986 214° Southwest 381 438 18,300 -2,400 Descending Albuquerque Center
01:05AM 34.3878 -111.7661 214° Southwest 364 419 16,000 -2,280 Descending Albuquerque Center
01:06AM 34.3111 -111.8300 215° Southwest 346 398 13,700 -2,100 Descending Albuquerque Center
01:07AM 34.2414 -111.8869 214° Southwest 318 366 11,800 -1,380 Descending Albuquerque Center
01:08AM 34.1636 -111.9283 204° Southwest 269 310 11,000 -960 Descending Albuquerque Center
01:09AM 34.0936 -111.9328 183° South 256 295 9,900 -1,440 Descending Albuquerque Center
01:10AM 34.0236 -111.9333 180° South 255 293 8,100 -960 Descending Albuquerque Center
01:11AM 33.9586 -111.9328 180° South 242 278 8,000 -600 Descending Albuquerque Center
01:12AM 33.8947 -111.9292 177° South 235 270 7,000 -1,020 Descending Albuquerque Center
01:13AM 33.8361 -111.9167 170° South 222 255 6,000 -1,200 Descending Albuquerque Center
01:14AM 33.7806 -111.8939 161° South 214 246 4,600 -1,200 Descending Albuquerque Center
01:15AM 33.7294 -111.8881 175° South 198 228 3,600 -840 Descending Albuquerque Center
01:16AM 33.6847 -111.8828 174° South 176 203 2,900 -780 Descending Albuquerque Center
01:17AM 33.6467 -111.8839 181° South 158 182 2,100 -720 Descending Albuquerque Center
01:18AM 33.6147 -111.9133 218° Southwest 148 170 1,500 -600 Descending Albuquerque Center